Kinston Regional Jetport At Stallings Field
KISO : now visible

Airfield :











YOU CAN JOIN US ON...

 
LOGIN :

Register | Disclaimer

   EN    FR    IT 

 









Legend :    VFR   Marginal VFR   IFR   Intensive IFR   Very Intensive IFR
Visi :
Ceiling :
>= 8 km
>= 3000ft
5 to 8 km
1000 to 3000 ft
1500m to 5 km
500 to 1000 ft
800 to 1500m
200 to 500 ft
< 800m
< 200 ft
Symbols :   Thunderstorms  Fog  Heavy snow  Heavy precipitations  Wind > 20 kt






- Airport Elevation : 93 ft


KISO - Kinston Regional Jetport At Stallings Field

CURRENT METAR :
  • 200900Z AUTO 12008G16KT 7SM -RA OVC005 20/19 A2975 RMK AO2 T01980187

EXPIRED METARs :
  • 200840Z AUTO 11009G16KT 5SM RA OVC005 19/18 A2976 RMK AO2 P0011 T01930183
  • 200820Z AUTO 12008G16KT 10SM -RA OVC005 19/18 A2977 RMK AO2 P0003 T01910180
  • 200800Z AUTO 11010G14KT 10SM -RA OVC005 19/18 A2978 RMK AO2 P0001 T01880178
  • 200740Z AUTO 10008G15KT 7SM RA OVC005 19/18 A2979 RMK AO2 P0008 T01860176
  • 200720Z AUTO 09007KT 7SM -RA OVC005 18/17 A2981 RMK AO2 P0004 T01810172
  • 200700Z AUTO 08007KT 7SM RA BKN007 OVC013 18/17 A2983 RMK AO2 T01780168
  • 200640Z AUTO 09006KT 7SM RA SCT007 BKN012 OVC021 18/17 A2985 RMK AO2 P0010 T01760166
  • 200620Z AUTO 10006KT 5SM +RA SCT007 BKN021 OVC070 18/16 A2987 RMK AO2 P0005 T01750163

TAF KISO
Valid from the 20 at 07:00 until the 21 at 06:00 UTC


200726Z 2007/2106 10010KT 6SM RA OVC007
FM201000 12011G18KT 2SM +RA OVC005
FM201400 17011KT 5SM SHRA OVC011
FM201900 24013KT P6SM BKN008 AMD LTD TO CLD VIS AND WIND



MET'MAP, your aeronautical weather chart ! - Copyright ORBIFLY December 2007 - Disclaimer

ORBIFLY MET'MAP TEAM :

Programming & Development : Alexandra Zaïnal
Concept & Development : Baudouin d'Aumeries
Co-Development & Prog : Marc-Olivier Méhu
Technical & hardware support : Manuel Goepfert

Contact : metmap@orbifly.com




SOURCES & CREDITS :

   NOAA       Earth
Advisory